createdAt,value
2022-10-20T00:02:27.203Z,1.40
2022-10-20T00:04:55.983Z,1.30
2022-10-20T00:07:24.955Z,1.30
2022-10-20T00:09:53.819Z,1.30
2022-10-20T00:12:24.112Z,1.30
2022-10-20T00:14:52.959Z,1.30
2022-10-20T00:17:21.849Z,1.30
2022-10-20T00:19:51.203Z,1.30
2022-10-20T00:22:20.155Z,1.20
2022-10-20T00:24:48.957Z,1.20
2022-10-20T00:27:17.925Z,1.20
2022-10-20T00:29:49.878Z,1.20
2022-10-20T00:32:18.804Z,1.20
2022-10-20T00:34:47.697Z,1.20
2022-10-20T00:37:16.677Z,1.20
2022-10-20T00:39:45.719Z,1.10
2022-10-20T00:42:17.374Z,1.10
2022-10-20T00:44:53.797Z,1.10
2022-10-20T00:47:30.217Z,1.10
2022-10-20T00:50:03.603Z,1.00
2022-10-20T00:52:33.018Z,1.00
2022-10-20T00:55:03.198Z,1.00
2022-10-20T00:57:33.470Z,1.00
2022-10-20T01:00:04.438Z,1.00
2022-10-20T01:02:33.658Z,1.00
2022-10-20T01:05:02.961Z,0.90
2022-10-20T01:07:31.965Z,1.00
2022-10-20T01:10:00.807Z,0.90
2022-10-20T01:12:37.386Z,0.90
2022-10-20T01:15:14.709Z,0.90
2022-10-20T01:17:51.646Z,0.90
2022-10-20T01:20:34.615Z,0.90
2022-10-20T01:23:31.438Z,0.90
2022-10-20T01:26:31.130Z,0.80
2022-10-20T01:29:06.772Z,0.80
2022-10-20T01:31:42.395Z,0.80
2022-10-20T01:34:19.404Z,0.80
2022-10-20T01:36:55.896Z,0.80
2022-10-20T01:39:33.136Z,0.80
2022-10-20T01:42:07.177Z,0.80
2022-10-20T01:44:39.720Z,0.70
2022-10-20T01:47:10.113Z,0.70
2022-10-20T01:49:39.075Z,0.70
2022-10-20T01:52:07.850Z,0.70
2022-10-20T01:54:36.699Z,0.70
2022-10-20T01:57:20.039Z,0.70
2022-10-20T02:00:04.809Z,0.70
2022-10-20T02:02:46.989Z,0.60
2022-10-20T02:05:28.930Z,0.60
2022-10-20T02:08:08.297Z,0.60
2022-10-20T02:13:23.715Z,0.60
2022-10-20T02:15:57.646Z,0.60
2022-10-20T02:18:31.293Z,0.60
2022-10-20T02:21:02.735Z,0.60
2022-10-20T02:23:36.469Z,0.60
2022-10-20T02:26:08.966Z,0.60
2022-10-20T02:28:42.685Z,0.60
2022-10-20T02:31:13.605Z,0.60
2022-10-20T02:33:44.178Z,0.60
2022-10-20T02:36:18.496Z,0.60
2022-10-20T02:38:47.901Z,0.60
2022-10-20T02:41:17.078Z,0.50
2022-10-20T02:43:46.018Z,0.50
2022-10-20T02:46:17.579Z,0.50
2022-10-20T02:48:46.757Z,0.50
2022-10-20T02:51:17.693Z,0.50
2022-10-20T02:53:47.457Z,0.50
2022-10-20T02:56:16.573Z,0.40
2022-10-20T02:58:46.257Z,0.40
2022-10-20T03:01:16.998Z,0.40
2022-10-20T03:03:46.060Z,0.40
2022-10-20T03:06:17.003Z,0.40
2022-10-20T03:08:46.436Z,0.40
2022-10-20T03:11:15.599Z,0.40
2022-10-20T03:13:44.772Z,0.40
2022-10-20T03:16:13.761Z,0.40
2022-10-20T03:18:44.272Z,0.40
2022-10-20T03:21:13.242Z,0.40
2022-10-20T03:23:42.272Z,0.40
2022-10-20T03:26:13.313Z,0.30
2022-10-20T03:28:42.703Z,0.40
2022-10-20T03:31:11.978Z,0.40
2022-10-20T03:33:41.112Z,0.40
2022-10-20T03:36:12.002Z,0.40
2022-10-20T03:38:43.872Z,0.40
2022-10-20T03:41:14.272Z,0.40
2022-10-20T03:43:43.813Z,0.30
2022-10-20T03:46:14.342Z,0.30
2022-10-20T03:48:44.077Z,0.30
2022-10-20T03:51:15.745Z,0.30
2022-10-20T03:53:44.764Z,0.30
2022-10-20T03:56:19.504Z,0.30
2022-10-20T03:58:49.546Z,0.40
2022-10-20T04:01:20.752Z,0.40
2022-10-20T04:03:50.042Z,0.40
2022-10-20T04:06:21.018Z,0.40
2022-10-20T04:08:50.141Z,0.40
2022-10-20T04:11:19.514Z,0.40
2022-10-20T04:13:48.816Z,0.40
2022-10-20T04:16:18.014Z,0.40
2022-10-20T04:18:47.546Z,0.30
2022-10-20T04:21:16.793Z,0.40
2022-10-20T04:23:47.348Z,0.40
2022-10-20T04:26:17.478Z,0.30
2022-10-20T04:28:46.648Z,0.40
2022-10-20T04:31:15.784Z,0.40
2022-10-20T04:33:45.047Z,0.50
2022-10-20T04:36:15.718Z,0.70
2022-10-20T04:38:44.855Z,0.70
2022-10-20T04:41:15.367Z,0.70
2022-10-20T04:43:44.400Z,0.70
2022-10-20T04:46:13.438Z,0.70
2022-10-20T04:48:44.848Z,0.70
2022-10-20T04:51:17.333Z,0.70
2022-10-20T04:53:46.886Z,0.70
2022-10-20T04:56:20.055Z,0.70
2022-10-20T04:58:52.889Z,0.80
2022-10-20T05:01:23.571Z,0.90
2022-10-20T05:03:53.175Z,0.90
2022-10-20T05:06:24.079Z,1.00
2022-10-20T05:08:55.207Z,1.10
2022-10-20T05:11:28.019Z,1.30
2022-10-20T05:13:57.517Z,1.50
2022-10-20T05:16:26.778Z,1.60
2022-10-20T05:18:58.361Z,1.70
2022-10-20T05:21:29.623Z,1.80
2022-10-20T05:23:59.411Z,2.00
2022-10-20T05:26:34.802Z,2.10
2022-10-20T05:29:05.990Z,2.20
2022-10-20T05:31:38.980Z,2.30
2022-10-20T05:34:08.593Z,2.40
2022-10-20T05:36:38.624Z,2.50
2022-10-20T05:39:07.794Z,2.70
2022-10-20T05:41:39.075Z,2.80
2022-10-20T05:44:10.213Z,2.90
2022-10-20T05:46:41.940Z,3.10
2022-10-20T05:49:15.963Z,3.30
2022-10-20T05:51:46.417Z,3.40
2022-10-20T05:54:16.315Z,3.60
2022-10-20T05:56:47.164Z,3.70
2022-10-20T05:59:16.394Z,3.80
2022-10-20T06:01:54.144Z,3.90
2022-10-20T06:04:25.104Z,3.90
2022-10-20T06:06:54.675Z,4.10
2022-10-20T06:09:24.745Z,4.20
2022-10-20T06:11:55.635Z,4.30
2022-10-20T06:14:26.123Z,4.30
2022-10-20T06:16:55.865Z,4.30
2022-10-20T06:19:25.304Z,4.40
2022-10-20T06:21:55.104Z,4.40
2022-10-20T06:24:24.274Z,4.50
2022-10-20T06:26:54.927Z,4.70
2022-10-20T06:29:24.169Z,4.70
2022-10-20T06:31:54.282Z,4.80
2022-10-20T06:34:25.345Z,5.00
2022-10-20T06:36:54.959Z,5.20
2022-10-20T06:39:25.685Z,5.20
2022-10-20T06:41:57.145Z,5.30
2022-10-20T06:44:26.589Z,5.50
2022-10-20T06:46:55.771Z,5.70
2022-10-20T06:49:25.214Z,5.80
2022-10-20T06:51:59.324Z,6.10
2022-10-20T06:54:28.386Z,6.30
2022-10-20T06:56:59.735Z,6.30
2022-10-20T06:59:28.994Z,6.30
2022-10-20T07:01:58.230Z,6.30
2022-10-20T07:04:27.346Z,6.30
2022-10-20T07:06:56.615Z,6.30
2022-10-20T07:09:25.807Z,6.50
2022-10-20T07:11:55.188Z,6.40
2022-10-20T07:14:26.286Z,6.40
2022-10-20T07:16:55.254Z,6.50
2022-10-20T07:19:24.521Z,6.80
2022-10-20T07:21:53.633Z,7.20
2022-10-20T07:24:22.675Z,7.40
2022-10-20T07:26:51.908Z,7.60
2022-10-20T07:29:21.215Z,7.70
2022-10-20T07:31:51.719Z,7.80
2022-10-20T07:34:26.796Z,7.90
2022-10-20T07:36:58.240Z,7.90
2022-10-20T07:39:27.860Z,7.80
2022-10-20T07:41:57.055Z,7.90
2022-10-20T07:44:26.340Z,7.90
2022-10-20T07:46:56.880Z,8.10
2022-10-20T07:52:18.915Z,8.50
2022-10-20T07:54:48.138Z,8.80
2022-10-20T07:57:17.266Z,8.90
2022-10-20T07:59:46.470Z,8.90
2022-10-20T08:02:17.264Z,9.10
2022-10-20T08:04:46.393Z,9.20
2022-10-20T08:07:15.567Z,9.40
2022-10-20T08:12:14.889Z,9.60
2022-10-20T08:14:48.091Z,9.80
2022-10-20T08:17:19.040Z,9.90
2022-10-20T08:19:50.796Z,9.80
2022-10-20T08:22:20.548Z,9.70
2022-10-20T08:24:49.740Z,9.80
2022-10-20T08:27:18.760Z,10.00
2022-10-20T08:29:55.244Z,9.90
2022-10-20T08:32:38.835Z,9.80
2022-10-20T08:35:09.120Z,9.70
2022-10-20T08:37:38.677Z,9.80
2022-10-20T08:40:09.329Z,9.90
2022-10-20T08:42:44.907Z,10.10
2022-10-20T08:45:18.145Z,10.20
2022-10-20T08:47:50.943Z,10.20
2022-10-20T08:50:22.188Z,10.50
2022-10-20T08:52:57.946Z,10.50
2022-10-20T08:55:30.159Z,10.40
2022-10-20T08:58:03.945Z,10.70
2022-10-20T09:00:34.948Z,10.50
2022-10-20T09:03:15.837Z,10.60
2022-10-20T09:05:49.167Z,10.60
2022-10-20T09:08:18.653Z,10.60
2022-10-20T09:10:51.240Z,10.70
2022-10-20T09:13:25.150Z,10.90
2022-10-20T09:15:57.719Z,11.10
2022-10-20T09:18:28.661Z,11.20
2022-10-20T09:21:02.371Z,11.60
2022-10-20T09:23:41.125Z,11.80
2022-10-20T09:26:30.433Z,11.50
2022-10-20T09:29:15.283Z,11.60
2022-10-20T09:31:54.737Z,11.90
2022-10-20T09:34:36.307Z,11.80
2022-10-20T09:37:13.287Z,11.60
2022-10-20T09:39:56.205Z,11.70
2022-10-20T09:42:30.326Z,12.00
2022-10-20T09:45:03.083Z,12.10
2022-10-20T09:47:32.923Z,12.20
2022-10-20T09:50:06.713Z,12.00
2022-10-20T09:52:47.928Z,12.30
2022-10-20T09:55:28.591Z,12.50
2022-10-20T09:57:59.939Z,12.60
2022-10-20T10:00:37.317Z,12.30
2022-10-20T10:03:12.614Z,12.30
2022-10-20T10:05:43.283Z,12.60
2022-10-20T10:08:16.796Z,12.80
2022-10-20T10:10:46.814Z,12.70
2022-10-20T10:13:28.102Z,12.80
2022-10-20T10:16:08.772Z,12.60
2022-10-20T10:18:39.502Z,12.50
2022-10-20T10:21:11.983Z,12.60
2022-10-20T10:23:54.563Z,12.90
2022-10-20T10:26:47.629Z,13.00
2022-10-20T10:29:22.025Z,12.80
2022-10-20T10:32:00.122Z,12.90
2022-10-20T10:34:44.413Z,13.00
2022-10-20T10:37:17.709Z,13.20
2022-10-20T10:39:46.754Z,13.10
2022-10-20T10:42:44.434Z,13.10
2022-10-20T10:45:25.123Z,13.10
2022-10-20T10:48:31.203Z,13.10
2022-10-20T10:51:02.132Z,13.20
2022-10-20T10:53:48.609Z,13.20
2022-10-20T10:56:25.106Z,13.10
2022-10-20T10:59:00.033Z,13.30
2022-10-20T11:01:52.779Z,13.10
2022-10-20T11:04:41.500Z,13.40
2022-10-20T11:07:16.687Z,12.90
2022-10-20T11:09:59.028Z,13.10
2022-10-20T11:12:47.817Z,13.20
2022-10-20T11:15:29.697Z,13.10
2022-10-20T11:18:07.846Z,13.10
2022-10-20T11:20:45.890Z,13.10
2022-10-20T11:24:05.594Z,13.30
2022-10-20T11:26:39.459Z,13.40
2022-10-20T11:29:17.569Z,13.30
2022-10-20T11:31:54.878Z,13.40
2022-10-20T11:34:31.965Z,13.60
2022-10-20T11:37:06.663Z,13.50
2022-10-20T11:39:42.878Z,13.20
2022-10-20T11:42:25.587Z,13.10
2022-10-20T11:44:58.366Z,13.10
2022-10-20T11:47:32.515Z,13.00
2022-10-20T11:50:01.595Z,12.90
2022-10-20T11:53:01.645Z,13.00
2022-10-20T11:55:58.845Z,13.00
2022-10-20T11:59:12.716Z,13.00
2022-10-20T12:01:58.392Z,13.10
2022-10-20T12:04:59.553Z,13.20
2022-10-20T12:08:00.918Z,13.10
2022-10-20T12:10:45.354Z,13.30
2022-10-20T12:13:28.294Z,13.10
2022-10-20T12:15:58.806Z,13.10
2022-10-20T12:18:30.145Z,13.00
2022-10-20T12:21:02.235Z,13.00
2022-10-20T12:24:05.974Z,13.00
2022-10-20T12:27:10.287Z,13.10
2022-10-20T12:30:02.146Z,12.90
2022-10-20T12:32:58.803Z,13.10
2022-10-20T12:36:00.295Z,13.00
2022-10-20T12:38:31.622Z,13.00
2022-10-20T12:41:04.055Z,13.00
2022-10-20T12:43:51.616Z,12.90
2022-10-20T12:46:24.511Z,13.00
2022-10-20T12:49:00.403Z,13.20
2022-10-20T12:51:41.454Z,13.10
2022-10-20T12:54:27.162Z,12.90
2022-10-20T12:57:00.002Z,13.00
2022-10-20T12:59:46.935Z,12.90
2022-10-20T13:02:40.576Z,12.80
2022-10-20T13:05:48.469Z,12.70
2022-10-20T13:08:29.909Z,12.70
2022-10-20T13:11:19.726Z,12.60
2022-10-20T13:14:10.635Z,12.40
2022-10-20T13:16:42.223Z,12.30
2022-10-20T13:19:16.628Z,12.30
2022-10-20T13:21:49.777Z,12.20
2022-10-20T13:24:22.687Z,12.20
2022-10-20T13:26:54.756Z,12.10
2022-10-20T13:29:33.063Z,12.10
2022-10-20T13:32:12.919Z,12.20
2022-10-20T13:34:48.906Z,12.20
2022-10-20T13:37:53.365Z,12.20
2022-10-20T13:40:36.550Z,12.10
2022-10-20T13:43:20.496Z,12.00
2022-10-20T13:46:20.085Z,12.00
2022-10-20T13:49:23.073Z,12.00
2022-10-20T13:51:55.535Z,11.90
2022-10-20T13:54:26.855Z,11.80
2022-10-20T13:56:58.298Z,11.80
2022-10-20T13:59:29.404Z,11.90
2022-10-20T14:02:01.019Z,11.90
2022-10-20T14:04:32.456Z,11.80
2022-10-20T14:07:05.535Z,11.70
2022-10-20T14:09:34.881Z,11.70
2022-10-20T14:12:09.740Z,11.60
2022-10-20T14:14:39.120Z,11.60
2022-10-20T14:17:10.412Z,11.40
2022-10-20T14:19:41.264Z,11.40
2022-10-20T14:22:17.608Z,11.30
2022-10-20T14:24:49.199Z,11.30
2022-10-20T14:27:23.630Z,11.30
2022-10-20T14:29:54.074Z,11.30
2022-10-20T14:32:24.930Z,11.30
2022-10-20T14:34:59.340Z,11.10
2022-10-20T14:37:33.139Z,11.00
2022-10-20T14:40:04.589Z,10.90
2022-10-20T14:42:36.238Z,10.70
2022-10-20T14:45:06.348Z,10.80
2022-10-20T14:47:41.308Z,10.80
2022-10-20T14:50:24.254Z,10.70
2022-10-20T14:52:54.302Z,10.70
2022-10-20T14:55:32.004Z,10.70
2022-10-20T14:58:02.961Z,10.70
2022-10-20T15:00:37.585Z,10.60
2022-10-20T15:03:08.655Z,10.60
2022-10-20T15:05:41.827Z,10.40
2022-10-20T15:08:29.715Z,10.40
2022-10-20T15:10:59.882Z,10.30
2022-10-20T15:13:33.491Z,10.30
2022-10-20T15:16:04.972Z,10.20
2022-10-20T15:18:37.918Z,10.20
2022-10-20T15:21:12.442Z,10.20
2022-10-20T15:23:41.509Z,10.10
2022-10-20T15:26:14.680Z,10.10
2022-10-20T15:28:47.839Z,10.00
2022-10-20T15:31:23.434Z,9.90
2022-10-20T15:33:53.051Z,9.80
2022-10-20T15:36:25.640Z,9.80
2022-10-20T15:38:54.910Z,9.80
2022-10-20T15:41:25.838Z,9.70
2022-10-20T15:43:57.089Z,9.60
2022-10-20T15:46:26.640Z,9.60
2022-10-20T15:48:55.870Z,9.60
2022-10-20T15:51:28.798Z,9.60
2022-10-20T15:53:58.667Z,9.60
2022-10-20T15:56:28.043Z,9.50
2022-10-20T15:58:58.570Z,9.50
2022-10-20T16:01:28.581Z,9.40
2022-10-20T16:03:57.730Z,9.30
2022-10-20T16:06:26.931Z,9.30
2022-10-20T16:08:56.047Z,9.40
2022-10-20T16:11:25.510Z,9.30
2022-10-20T16:13:54.880Z,9.30
2022-10-20T16:16:25.841Z,9.40
2022-10-20T16:18:55.060Z,9.30
2022-10-20T16:21:24.299Z,9.30
2022-10-20T16:23:53.661Z,9.30
2022-10-20T16:26:23.094Z,9.30
2022-10-20T16:28:52.200Z,9.30
2022-10-20T16:31:21.780Z,9.30
2022-10-20T16:33:52.420Z,9.30
2022-10-20T16:36:22.089Z,9.30
2022-10-20T16:38:57.048Z,9.20
2022-10-20T16:41:26.182Z,9.20
2022-10-20T16:43:58.788Z,9.20
2022-10-20T16:46:30.556Z,9.20
2022-10-20T16:49:01.283Z,9.10
2022-10-20T16:51:31.026Z,9.20
2022-10-20T16:54:03.300Z,9.20
2022-10-20T16:56:33.418Z,9.20
2022-10-20T16:59:03.532Z,9.20
2022-10-20T17:01:33.510Z,9.20
2022-10-20T17:04:04.991Z,9.20
2022-10-20T17:06:34.488Z,9.20
2022-10-20T17:09:03.870Z,9.20
2022-10-20T17:11:36.259Z,9.30
2022-10-20T17:14:06.075Z,9.20
2022-10-20T17:16:38.769Z,9.20
2022-10-20T17:19:09.757Z,9.20
2022-10-20T17:21:39.389Z,9.10
2022-10-20T17:24:13.272Z,9.20
2022-10-20T17:26:45.039Z,9.20
2022-10-20T17:29:15.550Z,9.20
2022-10-20T17:31:44.909Z,9.20
2022-10-20T17:34:15.959Z,9.20
2022-10-20T17:36:45.676Z,9.20
2022-10-20T17:39:17.468Z,9.30
2022-10-20T17:41:48.817Z,9.30
2022-10-20T17:44:18.268Z,9.30
2022-10-20T17:46:48.028Z,9.20
2022-10-20T17:49:20.055Z,9.20
2022-10-20T17:51:49.697Z,9.30
2022-10-20T17:54:19.674Z,9.20
2022-10-20T17:56:51.536Z,9.10
2022-10-20T17:59:21.719Z,9.10
2022-10-20T18:01:51.924Z,9.10
2022-10-20T18:04:22.739Z,9.10
2022-10-20T18:06:52.265Z,9.10
2022-10-20T18:09:22.217Z,9.10
2022-10-20T18:11:54.096Z,9.10
2022-10-20T18:14:24.209Z,9.10
2022-10-20T18:16:53.704Z,9.20
2022-10-20T18:19:25.056Z,9.20
2022-10-20T18:21:54.623Z,9.20
2022-10-20T18:24:24.319Z,9.30
2022-10-20T18:26:53.976Z,9.30
2022-10-20T18:29:25.146Z,9.20
2022-10-20T18:31:55.389Z,9.10
2022-10-20T18:34:26.708Z,9.20
2022-10-20T18:36:57.385Z,9.20
2022-10-20T18:39:27.445Z,9.10
2022-10-20T18:41:57.056Z,9.10
2022-10-20T18:44:27.376Z,9.10
2022-10-20T18:47:01.076Z,9.10
2022-10-20T18:49:34.750Z,9.10
2022-10-20T18:52:05.105Z,9.10
2022-10-20T18:54:36.263Z,9.10
2022-10-20T18:57:07.677Z,9.10
2022-10-20T18:59:37.510Z,9.10
2022-10-20T19:02:07.176Z,9.10
2022-10-20T19:04:38.008Z,9.10
2022-10-20T19:07:07.456Z,9.00
2022-10-20T19:09:38.226Z,9.10
2022-10-20T19:12:10.444Z,9.10
2022-10-20T19:14:40.638Z,9.00
2022-10-20T19:17:12.976Z,9.00
2022-10-20T19:19:45.058Z,9.00
2022-10-20T19:22:14.774Z,9.00
2022-10-20T19:24:44.336Z,8.90
2022-10-20T19:27:26.186Z,8.90
2022-10-20T19:29:57.268Z,8.90
2022-10-20T19:32:27.922Z,8.90
2022-10-20T19:34:59.218Z,8.90
2022-10-20T19:37:29.600Z,8.90
2022-10-20T19:39:59.508Z,8.90
2022-10-20T19:42:29.221Z,8.80
2022-10-20T19:44:59.053Z,8.80
2022-10-20T19:47:28.822Z,8.80
2022-10-20T19:50:01.140Z,8.80
2022-10-20T19:52:30.733Z,8.70
2022-10-20T19:55:01.783Z,8.70
2022-10-20T19:57:32.700Z,8.70
2022-10-20T20:00:03.241Z,8.80
2022-10-20T20:02:33.240Z,8.70
2022-10-20T20:05:05.158Z,8.70
2022-10-20T20:07:35.543Z,8.70
2022-10-20T20:10:05.834Z,8.70
2022-10-20T20:12:35.981Z,8.70
2022-10-20T20:15:05.901Z,8.60
2022-10-20T20:17:35.942Z,8.60
2022-10-20T20:20:08.780Z,8.60
2022-10-20T20:22:39.636Z,8.60
2022-10-20T20:25:09.812Z,8.60
2022-10-20T20:27:39.714Z,8.60
2022-10-20T20:30:10.560Z,8.60
2022-10-20T20:32:45.721Z,8.60
2022-10-20T20:35:19.109Z,8.60
2022-10-20T20:37:48.247Z,8.70
2022-10-20T20:40:18.627Z,8.60
2022-10-20T20:42:48.269Z,8.60
2022-10-20T20:45:18.021Z,8.60
2022-10-20T20:47:48.328Z,8.60
2022-10-20T20:50:19.318Z,8.60
2022-10-20T20:52:51.235Z,8.50
2022-10-20T20:55:20.407Z,8.60
2022-10-20T20:57:54.204Z,8.50
2022-10-20T21:00:23.156Z,8.50
2022-10-20T21:02:52.322Z,8.60
2022-10-20T21:05:22.907Z,8.60
2022-10-20T21:07:51.915Z,8.60
2022-10-20T21:10:21.068Z,8.60
2022-10-20T21:12:50.236Z,8.60
2022-10-20T21:15:19.296Z,8.60
2022-10-20T21:17:49.340Z,8.50
2022-10-20T21:20:18.998Z,8.60
2022-10-20T21:22:49.586Z,8.60
2022-10-20T21:25:18.829Z,8.50
2022-10-20T21:27:47.829Z,8.50
2022-10-20T21:30:16.954Z,8.50
2022-10-20T21:32:45.992Z,8.50
2022-10-20T21:35:15.178Z,8.60
2022-10-20T21:37:44.126Z,8.60
2022-10-20T21:40:15.282Z,8.60
2022-10-20T21:42:44.207Z,8.60
2022-10-20T21:45:15.494Z,8.60
2022-10-20T21:47:47.337Z,8.60
2022-10-20T21:50:16.575Z,8.60
2022-10-20T21:52:45.639Z,8.60
2022-10-20T21:55:16.495Z,8.60
2022-10-20T21:57:45.553Z,8.60
2022-10-20T22:00:15.093Z,8.60
2022-10-20T22:02:44.263Z,8.50
2022-10-20T22:05:13.501Z,8.50
2022-10-20T22:07:42.601Z,8.50
2022-10-20T22:10:12.140Z,8.50
2022-10-20T22:12:42.754Z,8.40
2022-10-20T22:15:12.202Z,8.40
2022-10-20T22:17:41.274Z,8.40
2022-10-20T22:20:11.797Z,8.30
2022-10-20T22:22:40.932Z,8.30
2022-10-20T22:25:10.973Z,8.30
2022-10-20T22:27:42.977Z,8.20
2022-10-20T22:30:14.151Z,8.20
2022-10-20T22:32:43.102Z,8.10
2022-10-20T22:35:12.201Z,8.00
2022-10-20T22:37:41.180Z,8.00
2022-10-20T22:40:11.291Z,7.80
2022-10-20T22:42:40.566Z,7.70
2022-10-20T22:45:11.649Z,7.70
2022-10-20T22:47:42.120Z,7.70
2022-10-20T22:50:11.359Z,7.70
2022-10-20T22:52:40.709Z,7.60
2022-10-20T22:55:10.459Z,7.60
2022-10-20T22:57:39.696Z,7.60
2022-10-20T23:00:11.121Z,7.60
2022-10-20T23:02:41.784Z,7.50
2022-10-20T23:05:11.193Z,7.50
2022-10-20T23:07:40.589Z,7.40
2022-10-20T23:10:10.931Z,7.30
2022-10-20T23:12:40.202Z,7.10
2022-10-20T23:15:10.352Z,7.00
2022-10-20T23:17:41.054Z,6.80
2022-10-20T23:20:11.153Z,6.60
2022-10-20T23:22:40.233Z,6.50
2022-10-20T23:25:10.279Z,6.30
2022-10-20T23:27:39.872Z,6.10
2022-10-20T23:30:10.034Z,6.00
2022-10-20T23:32:39.122Z,5.80
2022-10-20T23:35:11.266Z,5.70
2022-10-20T23:37:40.577Z,5.50
2022-10-20T23:40:11.052Z,5.40
2022-10-20T23:42:39.996Z,5.30
2022-10-20T23:45:09.867Z,5.20
2022-10-20T23:47:39.338Z,5.00
2022-10-20T23:50:10.810Z,4.90
2022-10-20T23:52:40.028Z,4.80
2022-10-20T23:55:13.239Z,4.70
2022-10-20T23:57:44.729Z,4.70
